Time;durP1;ratioP1;P1;durP2;ratioP2;P2;SDS_P1;SDS_P2;PMS_P1;PMS_P2;Temp;Humidity;BMP_temperature;BMP_pressure;BME280_temperature;BME280_humidity;BME280_pressure;Samples;Min_cycle;Max_cycle;Signal;HPM_P1;HPM_P2
2023/05/22 00:00:14;;;;;;;;;;;18.90;88.10;;;;;;5047337;28;19995;-65
2023/05/22 00:02:42;;;;;;;;;;;18.90;88.30;;;;;;5046582;28;19999;-65
2023/05/22 00:05:09;;;;;;;;;;;18.80;88.40;;;;;;5046649;28;20518;-65
2023/05/22 00:07:35;;;;;;;;;;;18.80;88.50;;;;;;5029629;28;19948;-65
2023/05/22 00:10:00;;;;;;;;;;;18.80;88.40;;;;;;5047238;28;20369;-65
2023/05/22 00:12:26;;;;;;;;;;;18.80;88.70;;;;;;5029512;28;20448;-65
2023/05/22 00:14:52;;;;;;;;;;;18.70;88.80;;;;;;5047130;28;20003;-65
2023/05/22 00:17:17;;;;;;;;;;;18.70;88.80;;;;;;5043206;28;19943;-65
2023/05/22 00:19:43;;;;;;;;;;;18.70;88.80;;;;;;5028901;28;19912;-65
2023/05/22 00:22:08;;;;;;;;;;;18.60;88.70;;;;;;5047096;28;20453;-65
2023/05/22 00:24:34;;;;;;;;;;;18.60;89.00;;;;;;5028904;28;20492;-65
2023/05/22 00:26:59;;;;;;;;;;;18.60;88.80;;;;;;5029585;28;20358;-65
2023/05/22 00:29:25;;;;;;;;;;;18.60;89.70;;;;;;5046863;28;19909;-65
2023/05/22 00:31:50;;;;;;;;;;;18.60;89.10;;;;;;5046739;28;20007;-65
2023/05/22 00:34:16;;;;;;;;;;;18.50;89.30;;;;;;5046693;28;19958;-65
2023/05/22 00:36:41;;;;;;;;;;;18.50;89.30;;;;;;5046951;28;19913;-65
2023/05/22 00:39:08;;;;;;;;;;;18.50;89.40;;;;;;5046649;28;19913;-65
2023/05/22 00:41:34;;;;;;;;;;;18.50;89.30;;;;;;5046723;28;19917;-65
2023/05/22 00:44:00;;;;;;;;;;;18.40;89.20;;;;;;5028738;28;19912;-65
2023/05/22 00:46:25;;;;;;;;;;;18.40;89.40;;;;;;5046731;28;20546;-65
2023/05/22 00:48:54;;;;;;;;;;;18.40;89.30;;;;;;5046455;28;19916;-65
2023/05/22 00:51:20;;;;;;;;;;;18.40;89.50;;;;;;5046644;28;20336;-65
2023/05/22 00:53:46;;;;;;;;;;;18.40;89.60;;;;;;5046189;28;19927;-65
2023/05/22 00:56:13;;;;;;;;;;;18.40;89.70;;;;;;5046544;28;19920;-65
2023/05/22 00:58:40;;;;;;;;;;;18.40;89.60;;;;;;5047008;28;19920;-65
2023/05/22 01:01:08;;;;;;;;;;;18.30;89.60;;;;;;5046769;28;20361;-65
2023/05/22 01:03:36;;;;;;;;;;;18.30;89.60;;;;;;5045962;28;19948;-65
2023/05/22 01:06:02;;;;;;;;;;;18.30;89.80;;;;;;5044294;28;19916;-65
2023/05/22 01:08:27;;;;;;;;;;;18.30;89.90;;;;;;5046038;28;20437;-65
2023/05/22 01:11:00;;;;;;;;;;;18.30;89.90;;;;;;5046253;28;19920;-65
2023/05/22 01:13:32;;;;;;;;;;;18.30;90.00;;;;;;5046216;28;19909;-65
2023/05/22 01:16:17;;;;;;;;;;;18.20;90.00;;;;;;5045749;28;20000;-65
2023/05/22 01:18:51;;;;;;;;;;;18.20;90.10;;;;;;5045795;28;19913;-65
2023/05/22 01:21:17;;;;;;;;;;;18.20;90.10;;;;;;5045968;28;19921;-65
2023/05/22 01:23:56;;;;;;;;;;;18.20;90.10;;;;;;5045761;27;19909;-65
2023/05/22 01:26:40;;;;;;;;;;;18.10;90.10;;;;;;5046171;27;20401;-65
2023/05/22 01:29:06;;;;;;;;;;;18.10;90.10;;;;;;5045936;28;19913;-65
2023/05/22 01:31:35;;;;;;;;;;;18.10;90.20;;;;;;5028266;28;20353;-65
2023/05/22 01:34:02;;;;;;;;;;;18.10;90.20;;;;;;5025952;28;19935;-65
2023/05/22 01:36:33;;;;;;;;;;;18.10;90.30;;;;;;5026281;28;19922;-65
2023/05/22 01:39:00;;;;;;;;;;;18.00;90.20;;;;;;5025892;28;20000;-65
2023/05/22 01:41:27;;;;;;;;;;;18.00;90.30;;;;;;5033577;28;19920;-65
2023/05/22 01:43:53;;;;;;;;;;;18.00;90.30;;;;;;5045637;28;20686;-65
2023/05/22 01:46:18;;;;;;;;;;;18.00;90.50;;;;;;5045565;28;19909;-65
2023/05/22 01:48:44;;;;;;;;;;;17.90;90.40;;;;;;5027531;28;19917;-65
2023/05/22 01:51:12;;;;;;;;;;;17.90;90.20;;;;;;5027571;28;19921;-65
2023/05/22 01:53:46;;;;;;;;;;;17.90;90.50;;;;;;5045422;28;20678;-65
2023/05/22 01:56:13;;;;;;;;;;;17.90;90.50;;;;;;5045568;28;19914;-65
2023/05/22 01:58:47;;;;;;;;;;;17.90;90.50;;;;;;5045556;28;19981;-65
2023/05/22 02:01:13;;;;;;;;;;;17.80;90.50;;;;;;5045218;28;19923;-65
2023/05/22 02:03:39;;;;;;;;;;;17.80;90.70;;;;;;5044888;28;20471;-65
2023/05/22 02:06:06;;;;;;;;;;;17.80;90.70;;;;;;5045504;28;19957;-65
2023/05/22 02:08:32;;;;;;;;;;;17.80;90.60;;;;;;5045506;28;19927;-65
2023/05/22 02:10:59;;;;;;;;;;;17.70;90.60;;;;;;5045571;28;20643;-65
2023/05/22 02:13:24;;;;;;;;;;;17.70;90.70;;;;;;5045442;28;19909;-65
2023/05/22 02:15:50;;;;;;;;;;;17.70;90.70;;;;;;5044269;28;19919;-65
2023/05/22 02:18:16;;;;;;;;;;;17.70;90.70;;;;;;5040614;28;19960;-65
2023/05/22 02:20:41;;;;;;;;;;;17.70;90.80;;;;;;5044000;28;19971;-65
2023/05/22 02:23:07;;;;;;;;;;;17.60;90.80;;;;;;5044746;28;19944;-65
2023/05/22 02:25:32;;;;;;;;;;;17.60;90.80;;;;;;5045531;28;19913;-65
2023/05/22 02:27:58;;;;;;;;;;;17.60;91.00;;;;;;5048141;28;20049;-65
2023/05/22 02:30:23;;;;;;;;;;;17.60;90.90;;;;;;5031096;28;19913;-65
2023/05/22 02:32:49;;;;;;;;;;;17.50;90.80;;;;;;5048752;28;19913;-65
2023/05/22 02:35:15;;;;;;;;;;;17.50;90.90;;;;;;5048704;28;19924;-65
2023/05/22 02:37:41;;;;;;;;;;;17.50;91.10;;;;;;5048730;28;19948;-65
2023/05/22 02:40:07;;;;;;;;;;;17.50;90.90;;;;;;5048432;28;19915;-65
2023/05/22 02:42:32;;;;;;;;;;;17.50;91.10;;;;;;5030529;28;19913;-65
2023/05/22 02:44:58;;;;;;;;;;;17.50;91.10;;;;;;5030663;28;19965;-65
2023/05/22 02:47:23;;;;;;;;;;;17.50;91.10;;;;;;5064182;28;19913;-65
2023/05/22 02:49:49;;;;;;;;;;;17.40;91.00;;;;;;5048362;28;19924;-65
2023/05/22 02:52:15;;;;;;;;;;;17.40;90.80;;;;;;5102870;27;19907;-65
2023/05/22 02:54:40;;;;;;;;;;;17.40;91.10;;;;;;5141735;27;20256;-65
2023/05/22 02:57:06;;;;;;;;;;;17.40;91.10;;;;;;5048484;28;20369;-65
2023/05/22 02:59:31;;;;;;;;;;;17.40;91.10;;;;;;5048728;28;19912;-65
2023/05/22 03:01:57;;;;;;;;;;;17.40;91.10;;;;;;5048522;28;19913;-65
2023/05/22 03:04:23;;;;;;;;;;;17.30;91.10;;;;;;5048185;28;19913;-65
2023/05/22 03:06:49;;;;;;;;;;;17.30;91.30;;;;;;5048513;28;19927;-65
2023/05/22 03:09:15;;;;;;;;;;;17.30;91.40;;;;;;5030155;28;19912;-65
2023/05/22 03:11:40;;;;;;;;;;;17.30;91.20;;;;;;5047928;28;19964;-65
2023/05/22 03:14:06;;;;;;;;;;;17.30;91.30;;;;;;5062932;28;19921;-65
2023/05/22 03:16:31;;;;;;;;;;;17.20;91.20;;;;;;5047866;28;19920;-65
2023/05/22 03:19:26;;;;;;;;;;;17.20;91.20;;;;;;5047636;28;19913;-65
2023/05/22 03:21:52;;;;;;;;;;;17.20;91.30;;;;;;5026388;28;20578;-65
2023/05/22 03:24:17;;;;;;;;;;;17.20;91.30;;;;;;5046560;28;19923;-65
2023/05/22 03:26:43;;;;;;;;;;;17.20;91.30;;;;;;5047812;28;19920;-65
2023/05/22 03:29:08;;;;;;;;;;;17.20;91.40;;;;;;5047834;28;19909;-65
2023/05/22 03:31:34;;;;;;;;;;;17.10;91.40;;;;;;5047593;28;19919;-65
2023/05/22 03:34:00;;;;;;;;;;;17.10;91.50;;;;;;5047499;28;19916;-65
2023/05/22 03:36:26;;;;;;;;;;;17.10;91.40;;;;;;5047509;28;19909;-65
2023/05/22 03:38:51;;;;;;;;;;;17.10;91.30;;;;;;5047417;28;20055;-65
2023/05/22 03:41:17;;;;;;;;;;;17.10;91.40;;;;;;5047439;28;19913;-65
2023/05/22 03:43:43;;;;;;;;;;;17.10;91.60;;;;;;5047514;28;19920;-65
2023/05/22 03:46:11;;;;;;;;;;;17.00;91.50;;;;;;5047702;28;19920;-65
2023/05/22 03:48:37;;;;;;;;;;;17.00;91.60;;;;;;5047659;28;20421;-65
2023/05/22 03:51:02;;;;;;;;;;;17.00;91.60;;;;;;5029542;28;19947;-65
2023/05/22 03:53:28;;;;;;;;;;;17.00;91.40;;;;;;5047270;28;20350;-65
2023/05/22 03:55:53;;;;;;;;;;;17.00;91.50;;;;;;5047188;28;19913;-65
2023/05/22 03:58:19;;;;;;;;;;;17.00;91.70;;;;;;5047580;28;19917;-65
2023/05/22 04:00:45;;;;;;;;;;;17.00;91.70;;;;;;5047326;28;19940;-65
2023/05/22 04:03:11;;;;;;;;;;;17.00;91.70;;;;;;5047581;28;20444;-65
2023/05/22 04:05:38;;;;;;;;;;;16.90;91.70;;;;;;5047081;28;20012;-65
2023/05/22 04:08:03;;;;;;;;;;;16.90;91.60;;;;;;5047302;28;19969;-65
2023/05/22 04:10:29;;;;;;;;;;;16.90;91.60;;;;;;5047222;28;19921;-65
2023/05/22 04:12:54;;;;;;;;;;;16.90;91.70;;;;;;5047103;28;20310;-65
2023/05/22 04:15:20;;;;;;;;;;;16.90;91.70;;;;;;5047243;28;19934;-65
2023/05/22 04:17:47;;;;;;;;;;;16.90;91.70;;;;;;5043104;28;20792;-65
2023/05/22 04:20:13;;;;;;;;;;;16.90;91.70;;;;;;5046766;28;19991;-65
2023/05/22 04:22:40;;;;;;;;;;;16.90;91.60;;;;;;5046721;28;20007;-64
2023/05/22 04:25:05;;;;;;;;;;;16.90;91.60;;;;;;5046769;28;20339;-65
2023/05/22 04:27:32;;;;;;;;;;;16.80;91.50;;;;;;5047086;28;20027;-65
2023/05/22 04:29:58;;;;;;;;;;;16.80;91.50;;;;;;5046596;28;19967;-65
2023/05/22 04:32:25;;;;;;;;;;;16.80;91.40;;;;;;5046601;28;19909;-65
2023/05/22 04:34:50;;;;;;;;;;;16.90;91.50;;;;;;5046535;28;19908;-65
2023/05/22 04:37:19;;;;;;;;;;;16.80;91.40;;;;;;5046917;28;20007;-65
2023/05/22 04:39:45;;;;;;;;;;;16.80;91.50;;;;;;5046705;28;19996;-65
2023/05/22 04:42:13;;;;;;;;;;;16.80;91.50;;;;;;5046375;28;20012;-65
2023/05/22 04:44:39;;;;;;;;;;;16.80;91.40;;;;;;5046762;28;19967;-65
2023/05/22 04:47:06;;;;;;;;;;;16.80;91.30;;;;;;5046544;28;19916;-65
2023/05/22 04:49:32;;;;;;;;;;;16.80;91.40;;;;;;5045712;28;19920;-65
2023/05/22 04:51:58;;;;;;;;;;;16.90;91.70;;;;;;5046129;28;19912;-65
2023/05/22 04:54:23;;;;;;;;;;;16.80;91.60;;;;;;5046387;28;20369;-65
2023/05/22 04:56:50;;;;;;;;;;;16.80;91.50;;;;;;5028856;28;20003;-65
2023/05/22 04:59:16;;;;;;;;;;;16.80;91.50;;;;;;5046615;28;19909;-65
2023/05/22 05:01:45;;;;;;;;;;;16.80;91.50;;;;;;5028778;28;20623;-65
2023/05/22 05:04:10;;;;;;;;;;;16.80;91.40;;;;;;5046045;28;19999;-65
2023/05/22 05:06:36;;;;;;;;;;;16.80;91.40;;;;;;5045994;28;20438;-65
2023/05/22 05:09:02;;;;;;;;;;;16.90;91.50;;;;;;5046161;28;19927;-65
2023/05/22 05:11:28;;;;;;;;;;;16.80;91.50;;;;;;5045768;28;20011;-65
2023/05/22 05:13:54;;;;;;;;;;;16.80;91.50;;;;;;5045958;28;20004;-65
2023/05/22 05:16:19;;;;;;;;;;;16.80;91.50;;;;;;5042276;28;19913;-65
2023/05/22 05:18:45;;;;;;;;;;;16.80;91.60;;;;;;5045619;28;20373;-65
2023/05/22 05:21:10;;;;;;;;;;;16.80;91.40;;;;;;5045560;28;19917;-65
2023/05/22 05:23:36;;;;;;;;;;;16.80;91.50;;;;;;5030558;28;20590;-65
2023/05/22 05:26:01;;;;;;;;;;;16.80;91.50;;;;;;5045806;28;19940;-65
2023/05/22 05:28:27;;;;;;;;;;;16.80;91.70;;;;;;5045559;28;19920;-65
2023/05/22 05:30:52;;;;;;;;;;;16.90;91.60;;;;;;5045689;28;20505;-65
2023/05/22 05:33:18;;;;;;;;;;;16.90;91.50;;;;;;5045570;28;19912;-65
2023/05/22 05:35:44;;;;;;;;;;;16.90;91.50;;;;;;5045350;28;19983;-65
2023/05/22 05:38:10;;;;;;;;;;;16.90;91.50;;;;;;5046149;28;19913;-65
2023/05/22 05:40:35;;;;;;;;;;;16.90;91.50;;;;;;5045809;28;19940;-65
2023/05/22 05:43:01;;;;;;;;;;;16.90;91.40;;;;;;5045735;28;19920;-65
2023/05/22 05:45:26;;;;;;;;;;;16.90;91.40;;;;;;5045881;28;19912;-65
2023/05/22 05:47:52;;;;;;;;;;;16.90;91.40;;;;;;5045875;28;20004;-65
2023/05/22 05:50:17;;;;;;;;;;;16.90;91.30;;;;;;5045602;28;19909;-65
2023/05/22 05:52:43;;;;;;;;;;;16.90;91.40;;;;;;5045675;28;19913;-65
2023/05/22 05:55:08;;;;;;;;;;;17.00;91.40;;;;;;5045721;27;19912;-65
2023/05/22 05:57:34;;;;;;;;;;;17.00;91.50;;;;;;5045791;28;20575;-65
2023/05/22 06:00:00;;;;;;;;;;;17.00;91.40;;;;;;5045802;28;19924;-65
2023/05/22 06:02:25;;;;;;;;;;;17.00;91.40;;;;;;5045393;28;19913;-65
2023/05/22 06:04:52;;;;;;;;;;;17.00;91.30;;;;;;5045494;28;20422;-65
2023/05/22 06:07:18;;;;;;;;;;;17.00;91.30;;;;;;5045494;28;20400;-65
2023/05/22 06:09:43;;;;;;;;;;;17.00;91.30;;;;;;5045580;28;20015;-65
2023/05/22 06:12:11;;;;;;;;;;;17.00;91.30;;;;;;5045501;28;19971;-65
2023/05/22 06:14:38;;;;;;;;;;;17.00;91.20;;;;;;5045632;28;19920;-65
2023/05/22 06:17:04;;;;;;;;;;;17.00;91.10;;;;;;5045175;28;20388;-65
2023/05/22 06:19:30;;;;;;;;;;;17.10;91.20;;;;;;5045015;28;19917;-65
2023/05/22 06:21:55;;;;;;;;;;;17.10;91.20;;;;;;5045026;28;19917;-65
2023/05/22 06:24:21;;;;;;;;;;;17.10;91.10;;;;;;5045159;28;20574;-65
2023/05/22 06:26:47;;;;;;;;;;;17.10;91.10;;;;;;5044886;28;20270;-65
2023/05/22 06:29:12;;;;;;;;;;;17.10;90.90;;;;;;5045649;28;19913;-65
2023/05/22 06:31:38;;;;;;;;;;;17.10;91.00;;;;;;5045491;28;19948;-65
2023/05/22 06:34:04;;;;;;;;;;;17.10;90.80;;;;;;5045127;28;19913;-65
2023/05/22 06:36:29;;;;;;;;;;;17.20;90.80;;;;;;5045140;28;19939;-65
2023/05/22 06:38:55;;;;;;;;;;;17.20;90.80;;;;;;5045250;28;19912;-65
2023/05/22 06:41:21;;;;;;;;;;;17.20;90.80;;;;;;5027171;28;20452;-65
2023/05/22 06:43:46;;;;;;;;;;;17.20;90.70;;;;;;5045162;28;20550;-65
2023/05/22 06:46:12;;;;;;;;;;;17.30;90.70;;;;;;5045265;28;19920;-65
2023/05/22 06:48:37;;;;;;;;;;;17.20;90.70;;;;;;5027223;28;19931;-65
2023/05/22 06:51:03;;;;;;;;;;;17.30;90.60;;;;;;5044879;28;20539;-65
2023/05/22 06:53:28;;;;;;;;;;;17.30;90.70;;;;;;5044773;28;19946;-65
2023/05/22 06:55:54;;;;;;;;;;;17.30;90.60;;;;;;5044867;28;19909;-65
2023/05/22 06:58:20;;;;;;;;;;;17.40;90.70;;;;;;5027153;28;19920;-65
2023/05/22 07:00:45;;;;;;;;;;;17.40;90.70;;;;;;5045053;28;19912;-65
2023/05/22 07:03:11;;;;;;;;;;;17.40;90.70;;;;;;5045024;28;20123;-65
2023/05/22 07:05:36;;;;;;;;;;;17.40;90.60;;;;;;5027002;28;19913;-65
2023/05/22 07:08:02;;;;;;;;;;;17.40;90.60;;;;;;5044888;28;19924;-65
2023/05/22 07:10:28;;;;;;;;;;;17.40;90.60;;;;;;5044577;28;19913;-65
2023/05/22 07:12:53;;;;;;;;;;;17.50;90.60;;;;;;5044749;28;19913;-65
2023/05/22 07:15:19;;;;;;;;;;;17.50;90.60;;;;;;5047370;28;19921;-65
2023/05/22 07:17:45;;;;;;;;;;;17.50;90.70;;;;;;5045760;28;20416;-65
2023/05/22 07:20:10;;;;;;;;;;;17.60;90.50;;;;;;5047139;28;20019;-65
2023/05/22 07:22:36;;;;;;;;;;;17.60;90.60;;;;;;5047471;28;20412;-65
2023/05/22 07:25:02;;;;;;;;;;;17.60;90.60;;;;;;5047037;28;20007;-65
2023/05/22 07:27:28;;;;;;;;;;;17.60;90.70;;;;;;5047162;28;19923;-65
2023/05/22 07:29:53;;;;;;;;;;;17.60;90.60;;;;;;5029016;28;19913;-65
2023/05/22 07:32:19;;;;;;;;;;;17.70;90.70;;;;;;5028868;28;19917;-65
2023/05/22 07:34:44;;;;;;;;;;;17.70;90.70;;;;;;5046217;28;20280;-65
2023/05/22 07:37:11;;;;;;;;;;;17.70;90.50;;;;;;5047044;28;19916;-65
2023/05/22 07:39:37;;;;;;;;;;;17.80;90.50;;;;;;5047093;28;19954;-65
2023/05/22 07:42:03;;;;;;;;;;;17.80;90.60;;;;;;5028839;28;19921;-65
2023/05/22 07:44:29;;;;;;;;;;;17.80;90.70;;;;;;5046807;28;19924;-65
2023/05/22 07:46:55;;;;;;;;;;;17.90;90.50;;;;;;5046968;28;19913;-65
2023/05/22 07:49:22;;;;;;;;;;;17.90;90.60;;;;;;5029748;28;19909;-65
2023/05/22 07:51:48;;;;;;;;;;;17.90;90.80;;;;;;5029442;28;20381;-65
2023/05/22 07:54:13;;;;;;;;;;;17.90;90.70;;;;;;5047363;28;19923;-65
2023/05/22 07:56:42;;;;;;;;;;;18.00;90.80;;;;;;5047547;27;19916;-65
2023/05/22 07:59:10;;;;;;;;;;;18.00;90.50;;;;;;5047599;28;19909;-65
2023/05/22 08:01:36;;;;;;;;;;;18.10;90.50;;;;;;5047364;28;20475;-65
2023/05/22 08:04:02;;;;;;;;;;;18.10;90.70;;;;;;5029268;28;19973;-65
2023/05/22 08:06:28;;;;;;;;;;;18.10;90.60;;;;;;5047105;28;19949;-65
2023/05/22 08:08:54;;;;;;;;;;;18.20;90.70;;;;;;5046888;28;19961;-65
2023/05/22 08:11:20;;;;;;;;;;;18.20;90.50;;;;;;5046268;28;20038;-65
2023/05/22 08:13:45;;;;;;;;;;;18.20;90.70;;;;;;5047096;28;20306;-65
2023/05/22 08:16:11;;;;;;;;;;;18.30;90.70;;;;;;5044236;28;19920;-65
2023/05/22 08:18:36;;;;;;;;;;;18.30;90.80;;;;;;5045947;28;19913;-65
2023/05/22 08:21:02;;;;;;;;;;;18.40;90.70;;;;;;5029136;28;19917;-65
2023/05/22 08:23:28;;;;;;;;;;;18.40;90.90;;;;;;5046540;28;19936;-65
2023/05/22 08:25:55;;;;;;;;;;;18.40;90.70;;;;;;5046134;28;19936;-65
2023/05/22 08:28:20;;;;;;;;;;;18.50;90.70;;;;;;5046555;28;20532;-65
2023/05/22 08:30:46;;;;;;;;;;;18.50;90.80;;;;;;5046170;28;19916;-65
2023/05/22 08:33:11;;;;;;;;;;;18.50;90.50;;;;;;5046724;28;19916;-65
2023/05/22 08:35:37;;;;;;;;;;;18.60;90.80;;;;;;5046252;28;19913;-66
2023/05/22 08:38:02;;;;;;;;;;;18.60;90.80;;;;;;5046265;28;19913;-65
2023/05/22 08:40:33;;;;;;;;;;;18.60;90.80;;;;;;5045906;28;20320;-65
2023/05/22 08:42:59;;;;;;;;;;;18.70;90.80;;;;;;5025239;28;19917;-65
2023/05/22 08:45:25;;;;;;;;;;;18.70;90.80;;;;;;5026380;28;19916;-65
2023/05/22 08:47:51;;;;;;;;;;;18.80;90.80;;;;;;5026750;28;19920;-65
2023/05/22 08:50:17;;;;;;;;;;;18.80;90.80;;;;;;5026491;28;19912;-65
2023/05/22 08:52:48;;;;;;;;;;;18.80;90.50;;;;;;5043650;28;20369;-65
2023/05/22 08:55:13;;;;;;;;;;;18.90;90.60;;;;;;5046391;28;20039;-65
2023/05/22 08:57:39;;;;;;;;;;;18.90;91.00;;;;;;5046819;28;20436;-65
2023/05/22 09:00:06;;;;;;;;;;;19.00;90.80;;;;;;5046322;28;19919;-65
2023/05/22 09:02:32;;;;;;;;;;;19.00;91.00;;;;;;5046231;28;19912;-65
2023/05/22 09:04:57;;;;;;;;;;;19.10;90.80;;;;;;5046500;28;19908;-65
2023/05/22 09:07:23;;;;;;;;;;;19.10;90.70;;;;;;5046618;28;19917;-65
2023/05/22 09:09:49;;;;;;;;;;;19.20;91.10;;;;;;5028423;28;19940;-65
2023/05/22 09:12:15;;;;;;;;;;;19.20;90.80;;;;;;5046468;28;20033;-65
2023/05/22 09:14:41;;;;;;;;;;;19.30;90.70;;;;;;5045829;28;20272;-66
2023/05/22 09:17:08;;;;;;;;;;;19.30;90.70;;;;;;5042615;28;20369;-66
2023/05/22 09:19:34;;;;;;;;;;;19.40;90.50;;;;;;5045624;28;19923;-66
2023/05/22 09:22:03;;;;;;;;;;;19.50;90.50;;;;;;5037804;28;20300;-65
2023/05/22 09:24:29;;;;;;;;;;;19.50;90.40;;;;;;5035832;27;19921;-66
2023/05/22 09:26:54;;;;;;;;;;;19.60;90.40;;;;;;5044222;28;19913;-65
2023/05/22 09:29:21;;;;;;;;;;;19.60;90.20;;;;;;5045819;28;20666;-65
2023/05/22 09:31:46;;;;;;;;;;;19.70;90.40;;;;;;5045402;28;19909;-65
2023/05/22 09:34:16;;;;;;;;;;;19.80;90.50;;;;;;5045734;28;20296;-65
2023/05/22 09:36:42;;;;;;;;;;;19.80;90.60;;;;;;5027662;28;20516;-66
2023/05/22 09:39:08;;;;;;;;;;;19.90;90.40;;;;;;5045740;28;19913;-66
2023/05/22 09:41:38;;;;;;;;;;;19.90;90.40;;;;;;5042117;27;19924;-65
2023/05/22 09:44:13;;;;;;;;;;;20.10;90.90;;;;;;5025578;28;20379;-65
2023/05/22 09:46:44;;;;;;;;;;;20.10;91.00;;;;;;5025255;28;19913;-66
2023/05/22 09:49:10;;;;;;;;;;;20.20;90.50;;;;;;5033713;28;19967;-66
2023/05/22 09:51:38;;;;;;;;;;;20.20;90.80;;;;;;5045219;28;19948;-66
2023/05/22 09:54:05;;;;;;;;;;;20.30;90.80;;;;;;5045097;28;19924;-66
2023/05/22 09:56:34;;;;;;;;;;;20.40;91.10;;;;;;5044972;28;19913;-66
2023/05/22 09:59:00;;;;;;;;;;;20.40;90.30;;;;;;5045545;28;19913;-66
2023/05/22 10:01:25;;;;;;;;;;;20.50;90.60;;;;;;5027177;28;19935;-66
2023/05/22 10:03:51;;;;;;;;;;;20.50;90.60;;;;;;5045055;28;19999;-66
2023/05/22 10:06:17;;;;;;;;;;;20.60;90.30;;;;;;5045001;28;20308;-66
2023/05/22 10:08:48;;;;;;;;;;;20.60;90.70;;;;;;5045118;28;19920;-66
2023/05/22 10:11:14;;;;;;;;;;;20.70;90.50;;;;;;5045231;28;19913;-66
2023/05/22 10:13:40;;;;;;;;;;;20.70;90.70;;;;;;5044790;28;19913;-66
2023/05/22 10:16:06;;;;;;;;;;;20.70;90.30;;;;;;5044920;28;19909;-66
2023/05/22 10:18:32;;;;;;;;;;;20.70;90.70;;;;;;5044601;28;19920;-66
2023/05/22 10:20:58;;;;;;;;;;;20.80;90.70;;;;;;5045001;28;19913;-66
2023/05/22 10:23:24;;;;;;;;;;;20.90;90.40;;;;;;5044517;28;19951;-65
2023/05/22 10:25:50;;;;;;;;;;;21.00;90.10;;;;;;5044198;27;20011;-66
2023/05/22 10:28:23;;;;;;;;;;;21.10;90.40;;;;;;5079819;27;19920;-66
2023/05/22 10:30:53;;;;;;;;;;;21.20;90.50;;;;;;5069845;27;19931;-66
2023/05/22 10:33:28;;;;;;;;;;;21.20;90.30;;;;;;5036682;28;20326;-66
2023/05/22 10:35:56;;;;;;;;;;;21.30;90.30;;;;;;5044765;28;19912;-66
2023/05/22 10:38:21;;;;;;;;;;;21.40;90.30;;;;;;5044761;28;19913;-66
2023/05/22 10:40:47;;;;;;;;;;;21.50;90.10;;;;;;5044839;28;19923;-66
2023/05/22 10:43:13;;;;;;;;;;;21.50;90.40;;;;;;5044132;28;19916;-66
2023/05/22 10:45:40;;;;;;;;;;;21.50;90.60;;;;;;5044752;28;20396;-66
2023/05/22 10:48:06;;;;;;;;;;;21.50;90.70;;;;;;5046154;28;19921;-66
2023/05/22 10:50:33;;;;;;;;;;;21.60;90.50;;;;;;5030141;28;19912;-66
2023/05/22 10:53:21;;;;;;;;;;;21.70;90.50;;;;;;5047893;28;19996;-66
2023/05/22 10:55:47;;;;;;;;;;;21.70;90.80;;;;;;5047900;27;20373;-66
2023/05/22 10:58:14;;;;;;;;;;;21.80;90.50;;;;;;5048331;28;19912;-66
2023/05/22 11:00:40;;;;;;;;;;;21.90;90.50;;;;;;5030106;28;20365;-66
2023/05/22 11:03:06;;;;;;;;;;;21.90;90.20;;;;;;5048107;28;19909;-66
2023/05/22 11:05:35;;;;;;;;;;;22.00;90.30;;;;;;5047858;28;19909;-66
2023/05/22 11:08:10;;;;;;;;;;;22.00;90.20;;;;;;5046314;28;19917;-66
2023/05/22 11:10:54;;;;;;;;;;;22.10;90.50;;;;;;5028144;28;20282;-66
2023/05/22 11:13:20;;;;;;;;;;;22.10;90.20;;;;;;5010184;28;19923;-66
2023/05/22 11:15:45;;;;;;;;;;;22.20;90.40;;;;;;5027875;28;19909;-66
2023/05/22 11:18:13;;;;;;;;;;;22.30;90.30;;;;;;5043068;28;19941;-66
2023/05/22 11:20:38;;;;;;;;;;;22.30;90.10;;;;;;5047819;28;19920;-66
2023/05/22 11:23:05;;;;;;;;;;;22.40;90.20;;;;;;5034424;28;19916;-66
2023/05/22 11:25:36;;;;;;;;;;;22.50;90.10;;;;;;5047548;28;19959;-66
2023/05/22 11:28:02;;;;;;;;;;;22.60;89.80;;;;;;5048014;28;20651;-66
2023/05/22 11:30:29;;;;;;;;;;;22.60;89.60;;;;;;5029802;28;19932;-66
2023/05/22 11:32:56;;;;;;;;;;;22.70;90.00;;;;;;5047757;28;19912;-66
2023/05/22 11:35:22;;;;;;;;;;;22.80;90.00;;;;;;5047515;28;19999;-66
2023/05/22 11:37:48;;;;;;;;;;;22.80;89.70;;;;;;5047981;28;20003;-66
2023/05/22 11:40:15;;;;;;;;;;;22.90;90.00;;;;;;5062757;28;19912;-66
2023/05/22 11:42:41;;;;;;;;;;;23.00;89.60;;;;;;5047213;28;19913;-66
2023/05/22 11:45:06;;;;;;;;;;;23.10;89.80;;;;;;5044162;27;19916;-66
2023/05/22 11:47:32;;;;;;;;;;;23.10;89.50;;;;;;5046118;28;20394;-66
2023/05/22 11:49:58;;;;;;;;;;;23.20;89.00;;;;;;5046054;27;20633;-66
2023/05/22 11:52:24;;;;;;;;;;;23.20;89.50;;;;;;5045443;27;19978;-67
2023/05/22 11:54:53;;;;;;;;;;;23.30;90.00;;;;;;5045354;28;20382;-66
2023/05/22 11:57:18;;;;;;;;;;;23.40;89.70;;;;;;5046736;28;20073;-66
2023/05/22 11:59:45;;;;;;;;;;;23.40;90.00;;;;;;5046862;28;20357;-66
2023/05/22 12:02:11;;;;;;;;;;;23.50;89.80;;;;;;5029224;28;20045;-66
2023/05/22 12:04:37;;;;;;;;;;;23.60;89.50;;;;;;5047200;28;20015;-66
2023/05/22 12:07:02;;;;;;;;;;;23.60;89.80;;;;;;5046222;28;19909;-66
2023/05/22 12:09:28;;;;;;;;;;;23.70;90.00;;;;;;5046344;28;19983;-66
2023/05/22 12:11:54;;;;;;;;;;;23.70;89.70;;;;;;5046114;28;19913;-66
2023/05/22 12:14:23;;;;;;;;;;;23.80;89.50;;;;;;5046445;28;19924;-67
2023/05/22 12:16:50;;;;;;;;;;;23.90;89.30;;;;;;5027946;28;19913;-66
2023/05/22 12:19:16;;;;;;;;;;;23.90;89.50;;;;;;5027902;28;19913;-66
2023/05/22 12:21:42;;;;;;;;;;;23.90;89.90;;;;;;5045654;28;19928;-66
2023/05/22 12:24:08;;;;;;;;;;;24.10;90.00;;;;;;5045500;28;19916;-66
2023/05/22 12:26:35;;;;;;;;;;;24.10;90.00;;;;;;5045822;28;19915;-66
2023/05/22 12:29:01;;;;;;;;;;;24.10;90.00;;;;;;5045574;28;20621;-66
2023/05/22 12:31:27;;;;;;;;;;;24.20;90.20;;;;;;5046048;28;19913;-66
2023/05/22 12:33:56;;;;;;;;;;;24.20;90.20;;;;;;5045952;28;19912;-66
2023/05/22 12:36:34;;;;;;;;;;;24.20;90.00;;;;;;5045708;28;19951;-66
2023/05/22 12:38:59;;;;;;;;;;;24.30;89.70;;;;;;5046116;28;19944;-66
2023/05/22 12:41:25;;;;;;;;;;;24.40;89.80;;;;;;5045810;28;19963;-66
2023/05/22 12:43:50;;;;;;;;;;;24.40;89.60;;;;;;5045864;28;19920;-66
2023/05/22 12:46:16;;;;;;;;;;;24.50;89.40;;;;;;5046014;28;20553;-67
2023/05/22 12:48:41;;;;;;;;;;;24.50;89.00;;;;;;5045745;28;19917;-66
2023/05/22 12:51:08;;;;;;;;;;;24.50;89.20;;;;;;5045668;28;19961;-66
2023/05/22 12:53:33;;;;;;;;;;;24.60;89.20;;;;;;5045558;28;19919;-66
2023/05/22 12:55:59;;;;;;;;;;;24.60;89.30;;;;;;5045788;28;19913;-66
2023/05/22 12:58:25;;;;;;;;;;;24.70;89.30;;;;;;5045568;28;19922;-67
2023/05/22 13:00:50;;;;;;;;;;;24.70;88.70;;;;;;5045567;28;19920;-67
2023/05/22 13:03:16;;;;;;;;;;;24.70;88.70;;;;;;5044661;28;20763;-66
2023/05/22 13:05:41;;;;;;;;;;;24.70;88.70;;;;;;5027140;28;19913;-66
2023/05/22 13:08:07;;;;;;;;;;;24.80;88.90;;;;;;5027704;28;19916;-66
2023/05/22 13:10:34;;;;;;;;;;;24.80;88.70;;;;;;5044851;28;19912;-66
2023/05/22 13:12:59;;;;;;;;;;;25.00;88.60;;;;;;5045308;28;19909;-67
2023/05/22 13:15:28;;;;;;;;;;;24.90;88.90;;;;;;5045040;28;19920;-66
2023/05/22 13:17:54;;;;;;;;;;;25.00;88.50;;;;;;5043668;28;20340;-66
2023/05/22 13:20:20;;;;;;;;;;;25.10;87.80;;;;;;5026924;28;20322;-66
2023/05/22 13:22:45;;;;;;;;;;;25.20;86.70;;;;;;5045110;28;19917;-67
2023/05/22 13:25:12;;;;;;;;;;;25.30;87.00;;;;;;5044894;28;20376;-67
2023/05/22 13:27:37;;;;;;;;;;;25.30;86.90;;;;;;5026986;28;19960;-66
2023/05/22 13:30:04;;;;;;;;;;;25.30;86.90;;;;;;5044971;28;20381;-66
2023/05/22 13:32:31;;;;;;;;;;;25.30;86.40;;;;;;5044813;28;19920;-67
2023/05/22 13:34:57;;;;;;;;;;;25.30;86.50;;;;;;5044586;28;19954;-67
2023/05/22 13:37:22;;;;;;;;;;;25.30;86.80;;;;;;5044012;28;19956;-66
2023/05/22 13:39:48;;;;;;;;;;;25.30;86.00;;;;;;5040188;28;19912;-66
2023/05/22 13:42:13;;;;;;;;;;;25.30;87.10;;;;;;5044553;28;19913;-67
2023/05/22 13:44:39;;;;;;;;;;;25.30;86.20;;;;;;5045196;28;19917;-67
2023/05/22 13:47:04;;;;;;;;;;;25.30;86.80;;;;;;5044881;28;20288;-66
2023/05/22 13:49:30;;;;;;;;;;;25.40;85.40;;;;;;5044737;28;19981;-67
2023/05/22 13:51:55;;;;;;;;;;;25.50;86.20;;;;;;5044557;28;19913;-67
2023/05/22 13:54:21;;;;;;;;;;;25.60;85.40;;;;;;5044508;28;19920;-66
2023/05/22 13:56:46;;;;;;;;;;;25.60;86.00;;;;;;5044837;28;19909;-67
2023/05/22 13:59:12;;;;;;;;;;;25.70;86.00;;;;;;5043896;28;20012;-66
2023/05/22 14:01:37;;;;;;;;;;;25.70;85.80;;;;;;5044730;28;19913;-67
2023/05/22 14:04:03;;;;;;;;;;;25.80;85.70;;;;;;5026107;28;20432;-67
2023/05/22 14:06:28;;;;;;;;;;;25.90;84.30;;;;;;5045247;28;19917;-66
2023/05/22 14:08:54;;;;;;;;;;;25.90;84.50;;;;;;5045282;28;19917;-66
2023/05/22 14:11:21;;;;;;;;;;;25.90;84.20;;;;;;5045322;28;19917;-67